createdAt,value
2019-04-06T00:00:55.623Z,8.70
2019-04-06T00:03:28.810Z,8.70
2019-04-06T00:05:58.342Z,8.70
2019-04-06T00:08:37.767Z,8.70
2019-04-06T00:11:16.457Z,8.80
2019-04-06T00:14:08.479Z,8.70
2019-04-06T00:16:38.541Z,8.80
2019-04-06T00:19:10.879Z,8.70
2019-04-06T00:21:47.600Z,8.70
2019-04-06T00:24:14.043Z,8.70
2019-04-06T00:26:54.751Z,8.60
2019-04-06T00:29:27.243Z,8.70
2019-04-06T00:32:04.230Z,8.70
2019-04-06T00:34:57.436Z,8.70
2019-04-06T00:37:34.855Z,8.70
2019-04-06T00:40:07.491Z,8.60
2019-04-06T00:42:33.902Z,8.60
2019-04-06T00:45:06.660Z,8.60
2019-04-06T00:47:33.294Z,8.50
2019-04-06T00:50:05.885Z,8.60
2019-04-06T00:52:32.329Z,8.50
2019-04-06T00:55:23.730Z,8.60
2019-04-06T00:57:53.145Z,8.50
2019-04-06T01:00:19.958Z,8.50
2019-04-06T01:03:04.619Z,8.50
2019-04-06T01:05:55.662Z,8.50
2019-04-06T01:08:34.279Z,8.50
2019-04-06T01:11:31.579Z,8.50
2019-04-06T01:14:04.038Z,8.50
2019-04-06T01:16:41.023Z,8.50
2019-04-06T01:19:13.619Z,8.40
2019-04-06T01:22:34.725Z,8.40
2019-04-06T01:25:13.522Z,8.40
2019-04-06T01:27:47.791Z,8.50
2019-04-06T01:30:14.306Z,8.50
2019-04-06T01:32:40.795Z,8.50
2019-04-06T01:35:08.500Z,8.50
2019-04-06T01:37:38.003Z,8.60
2019-04-06T01:40:41.550Z,8.50
2019-04-06T01:43:10.982Z,8.40
2019-04-06T01:45:49.485Z,8.30
2019-04-06T01:48:19.112Z,8.30
2019-04-06T01:50:56.599Z,8.30
2019-04-06T01:53:29.000Z,8.30
2019-04-06T01:55:55.397Z,8.30
2019-04-06T01:58:38.184Z,8.30
2019-04-06T02:01:07.711Z,8.30
2019-04-06T02:03:49.518Z,8.30
2019-04-06T02:06:15.847Z,8.30
2019-04-06T02:08:45.304Z,8.30
2019-04-06T02:11:14.892Z,8.30
2019-04-06T02:13:43.152Z,8.30
2019-04-06T02:16:15.482Z,8.30
2019-04-06T02:19:12.742Z,8.30
2019-04-06T02:21:48.314Z,8.20
2019-04-06T02:24:17.729Z,8.30
2019-04-06T02:26:50.266Z,8.30
2019-04-06T02:29:19.745Z,8.30
2019-04-06T02:31:53.712Z,8.30
2019-04-06T02:34:27.743Z,8.30
2019-04-06T02:37:11.022Z,8.30
2019-04-06T02:39:51.389Z,8.30
2019-04-06T02:42:19.618Z,8.30
2019-04-06T02:44:51.856Z,8.30
2019-04-06T02:47:18.559Z,8.20
2019-04-06T02:49:48.094Z,8.30
2019-04-06T02:52:23.856Z,8.30
2019-04-06T02:54:53.383Z,8.30
2019-04-06T02:57:32.197Z,8.30
2019-04-06T03:00:09.259Z,8.20
2019-04-06T03:02:38.725Z,8.20
2019-04-06T03:05:06.566Z,8.20
2019-04-06T03:07:36.164Z,8.30
2019-04-06T03:10:32.318Z,8.20
2019-04-06T03:13:21.646Z,8.20
2019-04-06T03:16:21.872Z,8.20
2019-04-06T03:19:23.779Z,8.30
2019-04-06T03:21:53.759Z,8.20
2019-04-06T03:24:32.013Z,8.20
2019-04-06T03:27:02.772Z,8.20
2019-04-06T03:29:35.847Z,8.20
2019-04-06T03:32:08.677Z,8.10
2019-04-06T03:34:56.658Z,8.20
2019-04-06T03:37:23.032Z,8.10
2019-04-06T03:39:58.510Z,8.10
2019-04-06T03:42:30.815Z,8.10
2019-04-06T03:45:00.195Z,8.10
2019-04-06T03:47:45.098Z,8.10
2019-04-06T03:50:14.683Z,8.10
2019-04-06T03:52:40.999Z,8.00
2019-04-06T03:55:16.434Z,8.10
2019-04-06T03:58:01.192Z,8.10
2019-04-06T04:00:27.585Z,8.10
2019-04-06T04:02:59.056Z,8.10
2019-04-06T04:05:37.459Z,8.10
2019-04-06T04:08:10.670Z,8.10
2019-04-06T04:10:40.300Z,8.00
2019-04-06T04:13:21.754Z,8.10
2019-04-06T04:15:48.326Z,8.10
2019-04-06T04:19:01.286Z,8.10
2019-04-06T04:21:35.458Z,8.10
2019-04-06T04:24:11.003Z,8.10
2019-04-06T04:26:40.390Z,8.00
2019-04-06T04:29:22.390Z,8.00
2019-04-06T04:31:57.340Z,8.00
2019-04-06T04:35:05.318Z,8.00
2019-04-06T04:37:51.136Z,8.00
2019-04-06T04:40:17.778Z,7.90
2019-04-06T04:42:50.227Z,7.90
2019-04-06T04:45:19.758Z,8.00
2019-04-06T04:47:50.301Z,8.00
2019-04-06T04:50:20.274Z,7.90
2019-04-06T04:52:49.910Z,7.90
2019-04-06T04:55:18.362Z,7.90
2019-04-06T05:01:52.759Z,8.00
2019-04-06T05:04:29.329Z,8.10
2019-04-06T05:07:01.871Z,8.10
2019-04-06T05:09:37.526Z,8.00
2019-04-06T05:12:07.147Z,8.00
2019-04-06T05:18:14.117Z,8.20
2019-04-06T05:20:48.363Z,8.10
2019-04-06T05:23:38.102Z,8.10
2019-04-06T05:26:06.742Z,8.40
2019-04-06T05:28:39.399Z,8.50
2019-04-06T05:31:12.280Z,8.40
2019-04-06T05:33:38.738Z,8.40
2019-04-06T05:36:08.532Z,8.30
2019-04-06T05:38:38.003Z,8.20
2019-04-06T05:41:07.554Z,8.20
2019-04-06T05:43:43.596Z,8.20
2019-04-06T05:46:28.726Z,8.30
2019-04-06T05:48:55.353Z,8.30
2019-04-06T05:51:25.019Z,8.20
2019-04-06T05:54:13.364Z,8.10
2019-04-06T05:56:42.827Z,8.10
2019-04-06T05:59:12.929Z,8.10
2019-04-06T06:01:53.101Z,8.10
2019-04-06T06:04:27.625Z,8.10
2019-04-06T06:06:57.568Z,8.10
2019-04-06T06:09:35.207Z,8.10
2019-04-06T06:12:09.645Z,8.10
2019-04-06T06:14:43.086Z,8.10
2019-04-06T06:17:18.836Z,8.10
2019-04-06T06:19:45.174Z,8.10
2019-04-06T06:22:21.562Z,8.20
2019-04-06T06:25:05.026Z,8.30
2019-04-06T06:27:31.324Z,8.40
2019-04-06T06:30:04.320Z,8.50
2019-04-06T06:32:40.951Z,8.50
2019-04-06T06:35:13.705Z,8.50
2019-04-06T06:37:49.080Z,8.60
2019-04-06T06:40:18.462Z,8.60
2019-04-06T06:42:47.993Z,8.50
2019-04-06T06:45:36.091Z,8.50
2019-04-06T06:48:05.624Z,8.50
2019-04-06T06:50:44.661Z,8.70
2019-04-06T06:53:11.277Z,8.60
2019-04-06T06:55:40.691Z,8.60
2019-04-06T06:58:24.640Z,8.60
2019-04-06T07:00:45.774Z,8.70
2019-04-06T07:03:15.141Z,8.80
2019-04-06T07:05:45.657Z,8.90
2019-04-06T07:08:12.035Z,8.90
2019-04-06T07:10:44.572Z,8.90
2019-04-06T07:13:19.944Z,9.10
2019-04-06T07:15:57.023Z,9.20
2019-04-06T07:19:19.049Z,9.30
2019-04-06T07:22:00.855Z,9.10
2019-04-06T07:25:02.713Z,9.10
2019-04-06T07:27:35.418Z,9.40
2019-04-06T07:30:06.930Z,9.30
2019-04-06T07:32:36.475Z,9.20
2019-04-06T07:35:07.071Z,9.30
2019-04-06T07:38:06.348Z,9.30
2019-04-06T07:40:37.697Z,9.30
2019-04-06T07:43:48.182Z,9.60
2019-04-06T07:46:15.119Z,9.80
2019-04-06T07:48:47.659Z,9.90
2019-04-06T07:51:23.519Z,10.10
2019-04-06T07:54:00.913Z,10.00
2019-04-06T07:56:29.351Z,10.20
2019-04-06T07:58:57.790Z,10.40
2019-04-06T08:01:30.173Z,10.50
2019-04-06T08:04:02.927Z,10.80
2019-04-06T08:06:32.668Z,10.80
2019-04-06T08:09:30.782Z,10.50
2019-04-06T08:12:00.546Z,10.30
2019-04-06T08:14:38.939Z,10.90
2019-04-06T08:17:06.537Z,11.20
2019-04-06T08:19:48.109Z,11.80
2019-04-06T08:22:14.434Z,11.70
2019-04-06T08:24:53.091Z,11.90
2019-04-06T08:27:26.331Z,12.40
2019-04-06T08:29:58.876Z,12.90
2019-04-06T08:32:34.240Z,13.40
2019-04-06T08:35:09.660Z,13.80
2019-04-06T08:37:39.099Z,15.40
2019-04-06T08:40:11.101Z,16.00
2019-04-06T08:42:52.157Z,16.40
2019-04-06T08:45:27.823Z,16.20
2019-04-06T08:48:19.010Z,16.10
2019-04-06T08:50:51.945Z,17.40
2019-04-06T08:53:24.245Z,17.20
2019-04-06T08:55:51.115Z,18.00
2019-04-06T08:58:18.736Z,18.40
2019-04-06T09:00:48.491Z,16.60
2019-04-06T09:03:19.084Z,15.80
2019-04-06T09:05:48.856Z,15.30
2019-04-06T09:08:37.088Z,14.10
2019-04-06T09:11:18.697Z,13.50
2019-04-06T09:13:51.484Z,13.40
2019-04-06T09:16:30.625Z,13.20
2019-04-06T09:19:06.144Z,13.70
2019-04-06T09:21:35.678Z,13.90
2019-04-06T09:24:08.815Z,13.50
2019-04-06T09:26:39.158Z,13.70
2019-04-06T09:29:07.560Z,14.50
2019-04-06T09:31:37.864Z,14.10
2019-04-06T09:39:45.069Z,13.00
2019-04-06T09:42:26.628Z,13.40
2019-04-06T09:45:09.929Z,13.70
2019-04-06T09:48:03.248Z,13.50
2019-04-06T09:50:35.647Z,13.30
2019-04-06T09:53:04.761Z,13.90
2019-04-06T09:55:43.177Z,13.10
2019-04-06T09:58:20.586Z,13.20
2019-04-06T10:00:52.567Z,13.30
2019-04-06T10:03:32.705Z,13.70
2019-04-06T10:06:00.920Z,14.50
2019-04-06T10:08:43.422Z,14.30
2019-04-06T10:11:33.677Z,14.60
2019-04-06T10:14:27.264Z,14.00
2019-04-06T10:17:19.916Z,14.00
2019-04-06T10:20:07.375Z,13.50
2019-04-06T10:22:53.599Z,12.90
2019-04-06T10:25:27.469Z,13.10
2019-04-06T10:28:03.748Z,14.10
2019-04-06T10:30:54.027Z,14.30
2019-04-06T10:33:28.364Z,14.70
2019-04-06T10:35:56.823Z,14.90
2019-04-06T10:38:46.125Z,15.50
2019-04-06T10:41:20.331Z,15.30
2019-04-06T10:44:07.023Z,14.90
2019-04-06T10:46:55.258Z,15.30
2019-04-06T10:49:42.972Z,15.20
2019-04-06T10:52:32.050Z,16.20
2019-04-06T10:55:10.061Z,16.30
2019-04-06T10:57:48.302Z,16.30
2019-04-06T11:00:22.489Z,16.20
2019-04-06T11:02:56.770Z,16.10
2019-04-06T11:05:49.345Z,15.70
2019-04-06T11:08:33.843Z,15.20
2019-04-06T11:11:23.084Z,15.20
2019-04-06T11:14:14.584Z,15.50
2019-04-06T11:17:00.567Z,15.50
2019-04-06T11:19:47.160Z,15.20
2019-04-06T11:22:24.570Z,14.70
2019-04-06T11:25:07.370Z,14.90
2019-04-06T11:27:42.434Z,14.50
2019-04-06T11:30:16.691Z,14.60
2019-04-06T11:32:51.412Z,15.30
2019-04-06T11:35:32.341Z,15.10
2019-04-06T11:38:21.309Z,15.20
2019-04-06T11:41:22.554Z,15.00
2019-04-06T11:43:50.787Z,15.00
2019-04-06T11:46:22.048Z,15.30
2019-04-06T11:49:16.826Z,15.30
2019-04-06T11:51:51.370Z,15.10
2019-04-06T11:54:31.970Z,14.90
2019-04-06T11:57:13.200Z,15.10
2019-04-06T11:59:41.711Z,15.00
2019-04-06T12:02:29.811Z,15.10
2019-04-06T12:05:14.650Z,14.90
2019-04-06T12:08:07.786Z,15.00
2019-04-06T12:11:09.991Z,15.40
2019-04-06T12:13:52.916Z,15.70
2019-04-06T12:16:40.003Z,16.10
2019-04-06T12:19:52.053Z,16.30
2019-04-06T12:22:20.386Z,15.90
2019-04-06T12:25:00.114Z,16.00
2019-04-06T12:27:31.612Z,16.20
2019-04-06T12:30:17.692Z,16.00
2019-04-06T12:33:03.264Z,16.40
2019-04-06T12:35:39.500Z,16.40
2019-04-06T12:38:11.978Z,15.90
2019-04-06T12:40:48.437Z,16.20
2019-04-06T12:43:32.033Z,16.50
2019-04-06T12:46:00.569Z,16.90
2019-04-06T12:48:33.944Z,16.60
2019-04-06T12:51:08.895Z,16.60
2019-04-06T12:53:41.272Z,16.40
2019-04-06T12:56:20.736Z,16.40
2019-04-06T12:58:54.091Z,15.40
2019-04-06T13:01:25.434Z,15.90
2019-04-06T13:04:08.708Z,15.30
2019-04-06T13:06:54.947Z,15.30
2019-04-06T13:09:43.699Z,15.60
2019-04-06T13:12:12.633Z,15.90
2019-04-06T13:14:47.697Z,15.20
2019-04-06T13:17:20.930Z,15.50
2019-04-06T13:20:01.284Z,15.90
2019-04-06T13:22:35.603Z,15.90
2019-04-06T13:25:13.080Z,15.40
2019-04-06T13:28:24.640Z,15.40
2019-04-06T13:31:19.155Z,15.90
2019-04-06T13:34:04.928Z,16.00
2019-04-06T13:36:46.355Z,16.40
2019-04-06T13:39:17.592Z,15.70
2019-04-06T13:42:05.412Z,15.30
2019-04-06T13:44:47.297Z,15.30
2019-04-06T13:47:21.608Z,15.50
2019-04-06T13:50:26.725Z,15.70
2019-04-06T13:53:10.413Z,15.60
2019-04-06T13:55:41.963Z,15.30
2019-04-06T13:58:13.630Z,15.30
2019-04-06T14:00:56.206Z,15.20
2019-04-06T14:03:37.773Z,15.30
2019-04-06T14:06:08.903Z,15.10
2019-04-06T14:08:38.149Z,15.00
2019-04-06T14:11:23.178Z,15.20
2019-04-06T14:14:03.717Z,15.10
2019-04-06T14:16:44.454Z,15.30
2019-04-06T14:19:15.697Z,15.30
2019-04-06T14:22:05.561Z,15.60
2019-04-06T14:24:58.115Z,15.40
2019-04-06T14:27:32.616Z,15.50
2019-04-06T14:33:54.083Z,15.20
2019-04-06T14:36:38.974Z,15.10
2019-04-06T14:39:13.676Z,15.00
2019-04-06T14:41:54.057Z,15.20
2019-04-06T14:44:40.207Z,15.30
2019-04-06T14:47:08.576Z,15.40
2019-04-06T14:49:58.936Z,15.70
2019-04-06T14:52:48.953Z,15.40
2019-04-06T14:55:27.948Z,15.70
2019-04-06T15:01:06.283Z,15.40
2019-04-06T15:04:30.025Z,15.40
2019-04-06T15:07:10.789Z,15.40
2019-04-06T15:09:40.162Z,15.50
2019-04-06T15:12:14.843Z,15.30
2019-04-06T15:15:05.139Z,15.40
2019-04-06T15:17:50.739Z,15.60
2019-04-06T15:20:44.298Z,15.50
2019-04-06T15:23:45.715Z,15.50
2019-04-06T15:26:18.268Z,15.50
2019-04-06T15:29:06.300Z,15.50
2019-04-06T15:31:34.856Z,15.50
2019-04-06T15:34:08.704Z,15.50
2019-04-06T15:36:53.771Z,15.50
2019-04-06T15:39:31.677Z,15.60
2019-04-06T15:42:08.891Z,15.40
2019-04-06T15:44:58.333Z,15.30
2019-04-06T15:47:46.905Z,15.30
2019-04-06T15:50:21.336Z,15.30
2019-04-06T15:53:18.336Z,15.20
2019-04-06T15:56:04.095Z,15.20
2019-04-06T15:58:35.884Z,15.10
2019-04-06T16:01:07.717Z,15.20
2019-04-06T16:03:49.598Z,15.20
2019-04-06T16:06:56.230Z,15.20
2019-04-06T16:09:41.892Z,15.10
2019-04-06T16:12:46.047Z,15.10
2019-04-06T16:15:23.770Z,15.10
2019-04-06T16:17:58.573Z,15.10
2019-04-06T16:20:34.602Z,15.20
2019-04-06T16:23:20.947Z,15.20
2019-04-06T16:25:52.324Z,15.30
2019-04-06T16:28:26.631Z,15.60
2019-04-06T16:31:30.211Z,15.80
2019-04-06T16:34:23.608Z,16.00
2019-04-06T16:36:51.859Z,15.90
2019-04-06T16:39:24.241Z,16.00
2019-04-06T16:42:16.114Z,16.20
2019-04-06T16:45:12.677Z,16.20
2019-04-06T16:47:44.484Z,16.30
2019-04-06T16:50:20.025Z,16.50
2019-04-06T16:52:52.179Z,16.70
2019-04-06T16:55:42.118Z,16.70
2019-04-06T16:58:28.881Z,16.70
2019-04-06T17:01:25.700Z,16.80
2019-04-06T17:04:04.639Z,16.70
2019-04-06T17:06:53.393Z,16.70
2019-04-06T17:09:23.260Z,16.60
2019-04-06T17:12:04.038Z,16.50
2019-04-06T17:14:49.802Z,16.50
2019-04-06T17:17:31.601Z,16.50
2019-04-06T17:20:20.528Z,16.30
2019-04-06T17:23:22.792Z,16.40
2019-04-06T17:26:02.838Z,16.30
2019-04-06T17:28:40.718Z,16.20
2019-04-06T17:31:29.235Z,15.90
2019-04-06T17:34:11.608Z,15.90
2019-04-06T17:36:40.153Z,15.90
2019-04-06T17:39:28.913Z,15.80
2019-04-06T17:42:03.309Z,15.70
2019-04-06T17:44:35.046Z,15.50
2019-04-06T17:47:22.347Z,15.40
2019-04-06T17:50:11.129Z,15.30
2019-04-06T17:53:03.726Z,15.20
2019-04-06T17:56:00.006Z,15.00
2019-04-06T17:58:37.400Z,14.70
2019-04-06T18:01:23.545Z,14.70
2019-04-06T18:04:06.501Z,14.60
2019-04-06T18:06:53.198Z,14.50
2019-04-06T18:09:54.814Z,14.30
2019-04-06T18:12:43.110Z,14.20
2019-04-06T18:15:15.684Z,14.10
2019-04-06T18:17:44.514Z,14.00
2019-04-06T18:20:17.710Z,13.90
2019-04-06T18:22:44.033Z,13.80
2019-04-06T18:25:13.826Z,13.70
2019-04-06T18:27:46.110Z,13.60
2019-04-06T18:30:19.001Z,13.60
2019-04-06T18:33:23.236Z,13.50
2019-04-06T18:36:10.102Z,13.50
2019-04-06T18:39:08.244Z,13.30
2019-04-06T18:41:34.648Z,13.20
2019-04-06T18:44:13.022Z,13.10
2019-04-06T18:46:55.072Z,13.10
2019-04-06T18:49:26.055Z,13.10
2019-04-06T18:51:53.614Z,13.10
2019-04-06T18:55:00.965Z,13.10
2019-04-06T18:57:28.649Z,13.00
2019-04-06T19:00:18.579Z,13.00
2019-04-06T19:02:44.838Z,13.00
2019-04-06T19:05:11.441Z,12.90
2019-04-06T19:07:38.269Z,12.60
2019-04-06T19:10:18.714Z,12.40
2019-04-06T19:12:51.192Z,12.50
2019-04-06T19:15:36.774Z,12.70
2019-04-06T19:18:03.374Z,12.70
2019-04-06T19:20:30.406Z,12.70
2019-04-06T19:22:57.127Z,12.70
2019-04-06T19:25:23.595Z,12.70
2019-04-06T19:27:53.505Z,12.60
2019-04-06T19:30:29.747Z,12.60
2019-04-06T19:33:02.233Z,12.50
2019-04-06T19:35:31.796Z,12.40
2019-04-06T19:38:16.745Z,12.30
2019-04-06T19:40:49.339Z,12.20
2019-04-06T19:43:56.600Z,12.10
2019-04-06T19:46:35.228Z,12.10
2019-04-06T19:49:08.732Z,12.00
2019-04-06T19:51:50.447Z,12.00
2019-04-06T19:54:16.897Z,11.80
2019-04-06T19:56:50.978Z,11.90
2019-04-06T19:59:21.273Z,11.60
2019-04-06T20:01:49.257Z,11.60
2019-04-06T20:04:19.455Z,11.50
2019-04-06T20:07:11.425Z,11.30
2019-04-06T20:09:44.770Z,11.30
2019-04-06T20:12:19.792Z,11.10
2019-04-06T20:14:54.973Z,11.20
2019-04-06T20:17:28.812Z,10.90
2019-04-06T20:19:58.548Z,10.80
2019-04-06T20:22:31.080Z,10.80
2019-04-06T20:25:02.022Z,10.90
2019-04-06T20:27:30.536Z,10.80
2019-04-06T20:29:56.782Z,10.70
2019-04-06T20:32:23.470Z,10.40
2019-04-06T20:34:55.760Z,10.40
2019-04-06T20:37:22.053Z,10.40
2019-04-06T20:39:48.364Z,10.30
2019-04-06T20:42:14.641Z,10.30
2019-04-06T20:44:40.982Z,10.40
2019-04-06T20:47:07.285Z,10.40
2019-04-06T20:49:33.626Z,10.40
2019-04-06T20:52:02.958Z,10.50
2019-04-06T20:54:29.730Z,10.60
2019-04-06T20:56:58.177Z,10.60
2019-04-06T20:59:24.156Z,10.70
2019-04-06T21:01:50.422Z,10.70
2019-04-06T21:04:17.902Z,10.80
2019-04-06T21:06:44.725Z,10.90
2019-04-06T21:09:12.147Z,10.80
2019-04-06T21:11:38.505Z,10.60
2019-04-06T21:14:04.791Z,10.50
2019-04-06T21:16:31.494Z,10.60
2019-04-06T21:18:57.921Z,10.60
2019-04-06T21:21:30.405Z,10.60
2019-04-06T21:23:56.675Z,10.60
2019-04-06T21:26:22.939Z,10.60
2019-04-06T21:28:51.196Z,10.60
2019-04-06T21:31:18.029Z,10.50
2019-04-06T21:33:45.869Z,10.50
2019-04-06T21:36:12.439Z,10.30
2019-04-06T21:38:38.911Z,10.40
2019-04-06T21:41:06.970Z,10.00
2019-04-06T21:43:39.290Z,9.90
2019-04-06T21:46:05.635Z,9.90
2019-04-06T21:48:32.438Z,9.90
2019-04-06T21:50:58.744Z,9.90
2019-04-06T21:53:25.439Z,10.00
2019-04-06T21:56:00.998Z,10.10
2019-04-06T21:58:20.084Z,10.10
2019-04-06T22:00:48.259Z,10.00
2019-04-06T22:03:15.576Z,9.90
2019-04-06T22:05:42.101Z,9.90
2019-04-06T22:08:15.071Z,9.80
2019-04-06T22:10:45.806Z,9.80
2019-04-06T22:13:14.789Z,9.70
2019-04-06T22:15:41.418Z,9.50
2019-04-06T22:18:09.231Z,9.50
2019-04-06T22:20:35.579Z,9.50
2019-04-06T22:23:06.603Z,9.10
2019-04-06T22:25:33.434Z,8.80
2019-04-06T22:27:59.977Z,8.90
2019-04-06T22:30:26.211Z,8.80
2019-04-06T22:32:56.110Z,8.80
2019-04-06T22:35:23.057Z,8.70
2019-04-06T22:37:49.714Z,8.90
2019-04-06T22:40:16.547Z,8.70
2019-04-06T22:42:43.310Z,8.70
2019-04-06T22:45:12.604Z,8.50
2019-04-06T22:47:39.351Z,8.60
2019-04-06T22:50:07.314Z,8.70
2019-04-06T22:52:34.276Z,8.80
2019-04-06T22:55:05.081Z,9.00
2019-04-06T22:57:31.785Z,9.00
2019-04-06T22:59:58.672Z,9.10
2019-04-06T23:02:27.349Z,9.10
2019-04-06T23:04:56.039Z,9.10
2019-04-06T23:07:24.543Z,9.10
2019-04-06T23:09:50.882Z,8.90
2019-04-06T23:12:17.705Z,8.60
2019-04-06T23:14:44.314Z,8.40
2019-04-06T23:17:11.177Z,8.30
2019-04-06T23:19:37.568Z,8.50
2019-04-06T23:22:03.963Z,8.70
2019-04-06T23:24:30.859Z,8.80
2019-04-06T23:26:57.833Z,8.70
2019-04-06T23:29:24.195Z,8.80
2019-04-06T23:31:50.531Z,8.70
2019-04-06T23:34:27.149Z,8.70
2019-04-06T23:36:53.648Z,8.80
2019-04-06T23:39:19.895Z,8.80
2019-04-06T23:41:48.431Z,8.60
2019-04-06T23:44:21.153Z,8.30
2019-04-06T23:46:47.609Z,8.40
2019-04-06T23:49:13.851Z,8.10
2019-04-06T23:51:40.138Z,8.20
2019-04-06T23:54:06.524Z,8.40
2019-04-06T23:56:33.677Z,8.50
2019-04-06T23:59:00.461Z,8.70
